createdAt,value
2022-08-17T00:01:15.532Z,2.17
2022-08-17T00:04:10.737Z,2.40
2022-08-17T00:07:01.771Z,2.60
2022-08-17T00:09:50.396Z,2.28
2022-08-17T00:12:44.662Z,2.45
2022-08-17T00:15:33.210Z,2.33
2022-08-17T00:19:02.418Z,2.38
2022-08-17T00:21:56.369Z,2.25
2022-08-17T00:24:43.022Z,1.95
2022-08-17T00:27:31.549Z,2.75
2022-08-17T00:30:19.963Z,2.08
2022-08-17T00:33:16.286Z,2.35
2022-08-17T00:36:11.848Z,2.53
2022-08-17T00:39:00.118Z,2.13
2022-08-17T00:41:49.697Z,2.35
2022-08-17T00:44:38.295Z,2.40
2022-08-17T00:47:26.898Z,2.17
2022-08-17T00:50:19.092Z,2.45
2022-08-17T00:53:08.161Z,2.17
2022-08-17T00:55:57.027Z,2.10
2022-08-17T00:58:47.126Z,2.50
2022-08-17T01:01:35.960Z,2.33
2022-08-17T01:04:26.908Z,2.28
2022-08-17T01:07:16.676Z,2.05
2022-08-17T01:10:07.965Z,2.13
2022-08-17T01:13:16.603Z,2.13
2022-08-17T01:16:09.182Z,2.15
2022-08-17T01:19:00.647Z,2.20
2022-08-17T01:21:59.940Z,2.30
2022-08-17T01:24:53.684Z,1.98
2022-08-17T01:27:43.660Z,2.13
2022-08-17T01:30:58.801Z,2.45
2022-08-17T01:33:41.922Z,1.95
2022-08-17T01:36:30.666Z,2.20
2022-08-17T01:39:25.390Z,2.05
2022-08-17T01:42:22.625Z,2.40
2022-08-17T01:45:15.295Z,2.20
2022-08-17T01:48:03.903Z,2.20
2022-08-17T01:50:53.553Z,2.08
2022-08-17T01:53:45.523Z,2.10
2022-08-17T01:56:36.889Z,2.20
2022-08-17T01:59:26.749Z,2.10
2022-08-17T02:02:30.391Z,2.22
2022-08-17T02:05:20.165Z,2.22
2022-08-17T02:08:08.741Z,2.30
2022-08-17T02:11:11.969Z,1.90
2022-08-17T02:14:03.746Z,2.33
2022-08-17T02:16:54.329Z,2.22
2022-08-17T02:19:42.615Z,2.10
2022-08-17T02:22:31.845Z,2.00
2022-08-17T02:25:23.215Z,2.38
2022-08-17T02:28:12.833Z,2.05
2022-08-17T02:31:06.095Z,1.85
2022-08-17T02:34:00.422Z,2.20
2022-08-17T02:36:53.438Z,1.88
2022-08-17T02:39:42.154Z,2.00
2022-08-17T02:42:34.179Z,2.10
2022-08-17T02:45:24.967Z,2.00
2022-08-17T02:48:14.288Z,2.40
2022-08-17T02:51:20.204Z,1.92
2022-08-17T02:54:40.659Z,2.05
2022-08-17T02:57:17.024Z,2.10
2022-08-17T03:00:07.911Z,2.17
2022-08-17T03:02:57.637Z,2.40
2022-08-17T03:05:48.403Z,2.10
2022-08-17T03:08:38.662Z,1.88
2022-08-17T03:11:27.191Z,2.00
2022-08-17T03:14:15.814Z,2.25
2022-08-17T03:17:04.137Z,2.10
2022-08-17T03:19:52.274Z,2.00
2022-08-17T03:22:42.562Z,2.30
2022-08-17T03:25:43.480Z,1.98
2022-08-17T03:28:32.830Z,2.10
2022-08-17T03:31:21.953Z,2.10
2022-08-17T03:34:10.387Z,2.20
2022-08-17T03:36:58.616Z,1.98
2022-08-17T03:39:47.560Z,1.92
2022-08-17T03:42:39.225Z,2.00
2022-08-17T03:45:41.868Z,2.38
2022-08-17T03:48:49.296Z,1.95
2022-08-17T03:51:54.786Z,2.20
2022-08-17T03:55:00.775Z,1.95
2022-08-17T03:57:50.760Z,1.73
2022-08-17T04:00:45.754Z,2.20
2022-08-17T04:03:34.469Z,2.15
2022-08-17T04:06:23.377Z,1.83
2022-08-17T04:09:12.562Z,2.00
2022-08-17T04:12:01.302Z,2.10
2022-08-17T04:14:55.285Z,1.88
2022-08-17T04:17:44.684Z,2.03
2022-08-17T04:20:33.467Z,2.05
2022-08-17T04:23:21.766Z,2.20
2022-08-17T04:26:10.721Z,2.40
2022-08-17T04:29:20.138Z,2.20
2022-08-17T04:32:10.809Z,2.05
2022-08-17T04:34:59.469Z,2.03
2022-08-17T04:37:48.364Z,2.05
2022-08-17T04:40:55.068Z,2.03
2022-08-17T04:43:45.660Z,1.83
2022-08-17T04:46:36.284Z,2.00
2022-08-17T04:49:26.071Z,2.00
2022-08-17T04:52:29.875Z,1.80
2022-08-17T04:55:23.471Z,2.00
2022-08-17T04:58:12.760Z,1.85
2022-08-17T05:01:01.660Z,2.08
2022-08-17T05:03:50.243Z,1.77
2022-08-17T05:06:40.166Z,2.08
2022-08-17T05:09:29.153Z,2.00
2022-08-17T05:12:17.831Z,2.03
2022-08-17T05:15:11.675Z,2.05
2022-08-17T05:18:00.330Z,1.95
2022-08-17T05:20:48.660Z,1.80
2022-08-17T05:23:43.600Z,2.20
2022-08-17T05:26:36.454Z,2.50
2022-08-17T05:29:33.631Z,1.80
2022-08-17T05:32:39.248Z,2.15
2022-08-17T05:35:31.496Z,1.85
2022-08-17T05:38:21.337Z,2.00
2022-08-17T05:41:11.910Z,2.00
2022-08-17T05:44:00.131Z,2.20
2022-08-17T05:46:54.921Z,1.80
2022-08-17T05:49:43.335Z,1.80
2022-08-17T05:52:42.929Z,2.13
2022-08-17T05:55:43.071Z,2.22
2022-08-17T05:58:43.634Z,2.00
2022-08-17T06:01:39.810Z,2.28
2022-08-17T06:04:34.723Z,2.10
2022-08-17T06:07:30.163Z,2.10
2022-08-17T06:10:29.749Z,2.50
2022-08-17T06:13:25.611Z,2.22
2022-08-17T06:16:28.221Z,2.33
2022-08-17T06:19:29.093Z,2.20
2022-08-17T06:22:21.958Z,2.00
2022-08-17T06:25:16.479Z,2.50
2022-08-17T06:28:09.318Z,2.17
2022-08-17T06:31:12.689Z,2.15
2022-08-17T06:34:05.096Z,2.05
2022-08-17T06:37:01.845Z,2.17
2022-08-17T06:40:00.768Z,1.98
2022-08-17T06:43:06.725Z,2.13
2022-08-17T06:46:02.576Z,2.13
2022-08-17T06:49:08.007Z,2.13
2022-08-17T06:52:03.086Z,2.28
2022-08-17T06:54:57.863Z,2.25
2022-08-17T06:57:51.382Z,2.40
2022-08-17T07:00:44.253Z,2.17
2022-08-17T07:03:38.292Z,2.13
2022-08-17T07:06:33.126Z,2.10
2022-08-17T07:09:32.654Z,2.20
2022-08-17T07:12:25.639Z,2.08
2022-08-17T07:15:17.596Z,2.20
2022-08-17T07:18:06.210Z,2.63
2022-08-17T07:21:01.382Z,2.30
2022-08-17T07:24:29.213Z,2.30
2022-08-17T07:27:22.072Z,2.22
2022-08-17T07:30:12.773Z,2.22
2022-08-17T07:33:04.130Z,2.50
2022-08-17T07:35:53.058Z,2.33
2022-08-17T07:38:58.948Z,2.25
2022-08-17T07:41:53.098Z,2.30
2022-08-17T07:44:51.677Z,2.42
2022-08-17T07:47:53.654Z,2.22
2022-08-17T07:50:42.201Z,2.08
2022-08-17T07:53:37.605Z,2.53
2022-08-17T07:56:40.681Z,2.58
2022-08-17T07:59:33.760Z,2.60
2022-08-17T08:02:31.737Z,2.28
2022-08-17T08:05:46.650Z,2.20
2022-08-17T08:08:38.856Z,2.45
2022-08-17T08:11:32.965Z,2.15
2022-08-17T08:14:28.520Z,2.60
2022-08-17T08:17:26.438Z,2.60
2022-08-17T08:20:42.393Z,2.30
2022-08-17T08:23:37.011Z,2.35
2022-08-17T08:26:35.260Z,2.45
2022-08-17T08:29:32.975Z,2.03
2022-08-17T08:32:30.039Z,2.13
2022-08-17T08:35:28.161Z,2.25
2022-08-17T08:38:24.155Z,2.20
2022-08-17T08:41:24.183Z,2.30
2022-08-17T08:45:00.719Z,2.53
2022-08-17T08:47:56.502Z,2.20
2022-08-17T08:50:50.570Z,2.60
2022-08-17T08:53:48.648Z,2.00
2022-08-17T08:57:11.580Z,2.30
2022-08-17T09:00:07.551Z,2.05
2022-08-17T09:03:19.391Z,2.28
2022-08-17T09:06:33.230Z,2.10
2022-08-17T09:09:37.401Z,2.47
2022-08-17T09:12:34.686Z,2.50
2022-08-17T09:15:28.363Z,2.35
2022-08-17T09:19:01.850Z,2.53
2022-08-17T09:21:38.455Z,2.03
2022-08-17T09:24:43.681Z,2.33
2022-08-17T09:27:35.829Z,2.58
2022-08-17T09:30:27.051Z,2.53
2022-08-17T09:33:23.122Z,2.47
2022-08-17T09:36:21.935Z,2.40
2022-08-17T09:39:16.569Z,2.63
2022-08-17T09:42:12.069Z,2.30
2022-08-17T09:45:11.091Z,2.55
2022-08-17T09:48:07.371Z,2.35
2022-08-17T09:51:04.984Z,2.30
2022-08-17T09:54:01.826Z,2.70
2022-08-17T09:57:29.298Z,2.50
2022-08-17T10:00:25.230Z,2.80
2022-08-17T10:03:40.259Z,2.88
2022-08-17T10:06:33.731Z,2.88
2022-08-17T10:09:37.695Z,2.83
2022-08-17T10:12:36.363Z,2.53
2022-08-17T10:15:42.499Z,2.55
2022-08-17T10:18:44.756Z,2.60
2022-08-17T10:22:00.643Z,2.55
2022-08-17T10:25:22.480Z,2.53
2022-08-17T10:28:19.888Z,2.95
2022-08-17T10:31:34.284Z,2.60
2022-08-17T10:34:46.404Z,2.55
2022-08-17T10:37:46.660Z,2.67
2022-08-17T10:40:45.495Z,2.92
2022-08-17T10:43:57.852Z,2.95
2022-08-17T10:47:08.352Z,2.50
2022-08-17T10:50:12.146Z,2.55
2022-08-17T10:53:00.667Z,2.78
2022-08-17T10:56:23.881Z,2.85
2022-08-17T10:59:55.843Z,2.80
2022-08-17T11:02:50.963Z,2.60
2022-08-17T11:05:59.156Z,2.60
2022-08-17T11:09:09.872Z,2.65
2022-08-17T11:12:13.752Z,2.67
2022-08-17T11:15:16.500Z,2.75
2022-08-17T11:18:22.937Z,2.80
2022-08-17T11:21:50.440Z,2.70
2022-08-17T11:24:40.595Z,2.35
2022-08-17T11:27:36.048Z,2.80
2022-08-17T11:30:48.740Z,2.55
2022-08-17T11:33:59.254Z,2.55
2022-08-17T11:37:23.914Z,3.05
2022-08-17T11:40:41.243Z,2.40
2022-08-17T11:43:56.903Z,2.50
2022-08-17T11:47:17.236Z,2.45
2022-08-17T11:50:45.043Z,3.28
2022-08-17T11:54:21.552Z,3.47
2022-08-17T11:57:40.919Z,3.30
2022-08-17T12:00:51.490Z,3.35
2022-08-17T12:03:57.179Z,3.42
2022-08-17T12:06:51.853Z,3.28
2022-08-17T12:09:45.628Z,3.08
2022-08-17T12:12:35.893Z,3.17
2022-08-17T12:15:33.299Z,3.35
2022-08-17T12:18:24.549Z,3.25
2022-08-17T12:24:19.964Z,3.13
2022-08-17T12:27:13.275Z,3.03
2022-08-17T12:30:06.827Z,3.30
2022-08-17T12:32:55.628Z,3.28
2022-08-17T12:35:45.206Z,3.35
2022-08-17T12:38:36.411Z,3.22
2022-08-17T12:41:35.556Z,3.22
2022-08-17T12:44:26.300Z,3.53
2022-08-17T12:47:21.819Z,2.97
2022-08-17T12:50:29.532Z,3.08
2022-08-17T12:53:23.469Z,2.92
2022-08-17T12:56:14.644Z,3.10
2022-08-17T13:01:56.514Z,2.83
2022-08-17T13:04:46.004Z,3.45
2022-08-17T13:07:37.865Z,3.10
2022-08-17T13:10:32.863Z,3.05
2022-08-17T13:13:26.208Z,3.05
2022-08-17T13:16:20.342Z,3.00
2022-08-17T13:19:15.263Z,2.70
2022-08-17T13:22:04.127Z,2.80
2022-08-17T13:24:55.105Z,3.42
2022-08-17T13:27:44.484Z,3.15
2022-08-17T13:30:34.073Z,2.92
2022-08-17T13:33:43.383Z,3.10
2022-08-17T13:36:33.801Z,3.35
2022-08-17T13:39:24.196Z,3.10
2022-08-17T13:42:30.813Z,3.10
2022-08-17T13:45:53.101Z,2.90
2022-08-17T13:48:42.868Z,3.03
2022-08-17T13:51:37.526Z,2.78
2022-08-17T13:54:29.679Z,3.03
2022-08-17T13:57:23.639Z,3.60
2022-08-17T14:00:19.869Z,2.95
2022-08-17T14:03:08.346Z,2.95
2022-08-17T14:06:08.477Z,3.40
2022-08-17T14:08:57.552Z,2.73
2022-08-17T14:11:47.713Z,2.90
2022-08-17T14:14:36.382Z,3.03
2022-08-17T14:17:24.743Z,2.88
2022-08-17T14:20:14.860Z,3.28
2022-08-17T14:23:05.109Z,3.03
2022-08-17T14:25:53.191Z,2.72
2022-08-17T14:28:56.324Z,2.70
2022-08-17T14:31:48.529Z,3.08
2022-08-17T14:34:42.285Z,2.88
2022-08-17T14:37:32.155Z,2.83
2022-08-17T14:40:25.084Z,2.70
2022-08-17T14:43:15.995Z,3.30
2022-08-17T14:46:05.559Z,2.83
2022-08-17T14:48:57.385Z,2.88
2022-08-17T14:51:46.882Z,2.85
2022-08-17T14:54:35.281Z,2.97
2022-08-17T14:57:34.102Z,3.03
2022-08-17T15:00:22.827Z,3.00
2022-08-17T15:03:12.634Z,2.95
2022-08-17T15:06:02.737Z,2.92
2022-08-17T15:08:53.894Z,2.87
2022-08-17T15:11:42.648Z,2.70
2022-08-17T15:14:32.634Z,3.00
2022-08-17T15:17:21.122Z,2.90
2022-08-17T15:20:14.689Z,3.30
2022-08-17T15:23:03.397Z,2.90
2022-08-17T15:25:53.976Z,2.80
2022-08-17T15:28:42.669Z,3.00
2022-08-17T15:31:32.710Z,3.33
2022-08-17T15:34:21.589Z,2.97
2022-08-17T15:37:09.928Z,3.00
2022-08-17T15:40:00.734Z,3.00
2022-08-17T15:42:49.153Z,2.90
2022-08-17T15:45:37.287Z,3.03
2022-08-17T15:48:41.053Z,2.90
2022-08-17T15:51:31.610Z,2.80
2022-08-17T15:54:22.901Z,2.83
2022-08-17T15:57:12.168Z,2.80
2022-08-17T16:00:00.338Z,3.28
2022-08-17T16:03:45.260Z,3.17
2022-08-17T16:06:00.749Z,3.30
2022-08-17T16:11:37.478Z,2.83
2022-08-17T16:14:32.325Z,2.83
2022-08-17T16:17:40.261Z,2.97
2022-08-17T16:20:30.727Z,3.00
2022-08-17T16:23:20.706Z,3.25
2022-08-17T16:26:09.338Z,2.70
2022-08-17T16:28:58.847Z,3.50
2022-08-17T16:31:47.323Z,2.92
2022-08-17T16:34:35.704Z,3.00
2022-08-17T16:37:24.355Z,2.70
2022-08-17T16:40:16.983Z,2.88
2022-08-17T16:43:12.166Z,3.00
2022-08-17T16:46:01.207Z,2.85
2022-08-17T16:48:49.813Z,2.55
2022-08-17T16:51:39.744Z,2.92
2022-08-17T16:54:28.204Z,2.95
2022-08-17T16:57:19.042Z,2.95
2022-08-17T17:00:09.153Z,2.75
2022-08-17T17:02:57.768Z,2.83
2022-08-17T17:06:08.336Z,2.80
2022-08-17T17:09:01.102Z,2.78
2022-08-17T17:11:53.775Z,2.75
2022-08-17T17:14:46.184Z,2.58
2022-08-17T17:17:37.407Z,2.70
2022-08-17T17:20:30.205Z,2.92
2022-08-17T17:23:32.512Z,3.13
2022-08-17T17:26:38.329Z,2.88
2022-08-17T17:29:47.649Z,2.90
2022-08-17T17:32:42.124Z,2.83
2022-08-17T17:35:33.895Z,2.85
2022-08-17T17:38:29.015Z,2.70
2022-08-17T17:41:26.313Z,3.10
2022-08-17T17:44:19.807Z,2.85
2022-08-17T17:47:10.048Z,3.03
2022-08-17T17:50:02.567Z,3.22
2022-08-17T17:53:00.199Z,2.65
2022-08-17T17:56:08.008Z,2.67
2022-08-17T17:59:24.789Z,2.83
2022-08-17T18:02:40.917Z,2.70
2022-08-17T18:05:44.520Z,2.90
2022-08-17T18:08:44.516Z,2.90
2022-08-17T18:11:59.352Z,3.33
2022-08-17T18:15:07.986Z,2.90
2022-08-17T18:18:37.856Z,2.80
2022-08-17T18:21:38.111Z,3.00
2022-08-17T18:24:32.491Z,2.88
2022-08-17T18:27:25.628Z,2.88
2022-08-17T18:30:27.716Z,3.05
2022-08-17T18:33:27.025Z,2.88
2022-08-17T18:36:31.703Z,2.80
2022-08-17T18:39:22.204Z,2.85
2022-08-17T18:42:27.129Z,3.17
2022-08-17T18:45:34.493Z,2.88
2022-08-17T18:48:36.563Z,2.88
2022-08-17T18:51:40.989Z,2.97
2022-08-17T18:54:31.573Z,3.20
2022-08-17T18:57:31.820Z,2.88
2022-08-17T19:00:35.889Z,2.80
2022-08-17T19:03:26.906Z,3.20
2022-08-17T19:06:23.316Z,2.95
2022-08-17T19:09:33.157Z,3.10
2022-08-17T19:12:29.242Z,2.55
2022-08-17T19:15:22.559Z,3.08
2022-08-17T19:18:16.005Z,3.05
2022-08-17T19:21:11.309Z,3.05
2022-08-17T19:24:11.019Z,3.20
2022-08-17T19:27:07.062Z,3.38
2022-08-17T19:30:06.967Z,3.40
2022-08-17T19:32:57.932Z,2.88
2022-08-17T19:35:54.964Z,3.25
2022-08-17T19:38:50.512Z,2.72
2022-08-17T19:41:45.427Z,2.88
2022-08-17T19:44:50.651Z,2.92
2022-08-17T19:47:57.757Z,2.85
2022-08-17T19:50:54.986Z,3.22
2022-08-17T19:54:05.410Z,3.33
2022-08-17T19:57:01.758Z,2.88
2022-08-17T20:00:00.240Z,2.80
2022-08-17T20:02:55.519Z,3.28
2022-08-17T20:06:11.548Z,2.97
2022-08-17T20:09:02.594Z,2.80
2022-08-17T20:11:56.111Z,3.08
2022-08-17T20:14:54.984Z,2.95
2022-08-17T20:17:48.441Z,2.88
2022-08-17T20:20:48.000Z,3.28
2022-08-17T20:23:51.612Z,2.80
2022-08-17T20:26:58.221Z,3.13
2022-08-17T20:30:11.282Z,3.00
2022-08-17T20:33:03.490Z,2.65
2022-08-17T20:36:17.753Z,3.00
2022-08-17T20:39:05.963Z,3.20
2022-08-17T20:42:19.667Z,2.95
2022-08-17T20:45:40.825Z,2.83
2022-08-17T20:48:38.407Z,3.05
2022-08-17T20:51:34.776Z,3.17
2022-08-17T20:54:46.478Z,3.05
2022-08-17T20:57:48.940Z,3.13
2022-08-17T21:00:50.477Z,2.90
2022-08-17T21:03:56.139Z,2.35
2022-08-17T21:07:18.696Z,2.80
2022-08-17T21:10:14.037Z,2.90
2022-08-17T21:13:37.244Z,2.92
2022-08-17T21:16:42.401Z,2.90
2022-08-17T21:20:08.203Z,2.88
2022-08-17T21:23:19.653Z,2.50
2022-08-17T21:26:19.377Z,2.88
2022-08-17T21:29:30.210Z,3.05
2022-08-17T21:32:30.775Z,2.83
2022-08-17T21:35:31.195Z,3.08
2022-08-17T21:38:22.782Z,2.72
2022-08-17T21:41:22.312Z,3.00
2022-08-17T21:44:21.697Z,3.03
2022-08-17T21:47:20.300Z,2.72
2022-08-17T21:50:20.751Z,2.55
2022-08-17T21:53:24.379Z,2.72
2022-08-17T21:56:22.942Z,2.70
2022-08-17T21:59:26.130Z,3.03
2022-08-17T22:02:21.549Z,2.80
2022-08-17T22:05:13.236Z,3.08
2022-08-17T22:08:08.984Z,3.05
2022-08-17T22:11:06.613Z,2.38
2022-08-17T22:13:57.247Z,2.97
2022-08-17T22:17:18.802Z,2.60
2022-08-17T22:20:10.904Z,2.70
2022-08-17T22:23:32.567Z,2.70
2022-08-17T22:26:25.695Z,3.13
2022-08-17T22:29:44.284Z,2.92
2022-08-17T22:32:38.911Z,2.78
2022-08-17T22:35:34.488Z,2.80
2022-08-17T22:38:31.934Z,2.95
2022-08-17T22:41:43.817Z,2.75
2022-08-17T22:44:35.800Z,2.65
2022-08-17T22:47:38.672Z,2.65
2022-08-17T22:50:29.831Z,2.78
2022-08-17T22:56:43.757Z,2.70
2022-08-17T22:59:53.505Z,2.60
2022-08-17T23:03:05.633Z,2.80
2022-08-17T23:06:06.110Z,3.22
2022-08-17T23:08:56.710Z,2.80
2022-08-17T23:11:50.367Z,3.00
2022-08-17T23:14:42.500Z,2.35
2022-08-17T23:17:37.151Z,2.88
2022-08-17T23:20:26.236Z,2.72
2022-08-17T23:23:18.030Z,2.80
2022-08-17T23:26:11.443Z,2.97
2022-08-17T23:29:00.326Z,2.50
2022-08-17T23:31:50.533Z,3.00
2022-08-17T23:34:41.499Z,2.75
2022-08-17T23:37:31.466Z,2.72
2022-08-17T23:40:19.779Z,2.60
2022-08-17T23:43:23.512Z,3.00
2022-08-17T23:46:13.552Z,2.50
2022-08-17T23:49:03.289Z,2.92
2022-08-17T23:51:53.942Z,2.88
2022-08-17T23:57:33.091Z,2.95
